KSBN

South Bend International Airport

South Bend, Indiana, USA
METAR KSBN 201754Z 30025G37KT 10SM FEW048 FEW065 BKN085 10/00 A2979 RMK AO2 PK WND 30038/1732 RAB16E25 SLP089 P0000 60000 T01000000 10128 20050 56013
Observed Flight Rules
Oct-20 @ 17:54 UTC (12 minutes ago) Visual Flight Rules
Wind Visibility Clouds
300° at 25 knots
 Gusting to 37 knots
10 miles
  • Few at 4,800' AGL
  • Few at 6,500' AGL
  • Broken at 8,500' AGL
Temperatures Readings Precipitation
Current 10°C / 50°F
Dewpoint 0°C / 32°F
Humidity 50%
Altimeter 29.79" Hg
Pressure 1008.9 hPa
Elevation 237
Current Rain 0.005
METAR KSBN 201754Z 30025G37KT 10SM FEW048 FEW065 BKN085 10/00 A2979 RMK AO2 PK WND 30038/1732 RAB16E25 SLP089 P0000 60000 T01000000 10128 20050 56013
Observed Flight Rules
Oct-20 @ 17:54 UTC
(12 minutes ago)
VFR
Wind Visibility
300° at 25 knots
 Gusting to 37 knots
10 miles
Clouds
  • Few at 4,800' AGL
  • Few at 6,500' AGL
  • Broken at 8,500' AGL
Temperature Dewpoint
10°C / 50°F 0°C / 32°F
Humidity Altimeter Pressure
50% 29.79" Hg 1008.9 hPa
Current Rain
0.005